Alfred, Maine
Current Conditions -  °F | °C
As of 10:15 PM on Friday 28 Nov 2014 (Local Time) from KSFM Reporting Station
Clear Clear  
Wind Chill:   Ceiling: Unl
Heat Index: 10°   Visibility: 10mi
Dew Point:   Wind: 5mph
Humidity: 79%   Direction: 250°WSW
Pressure: 30.14"   Gusts: NA
Location:  43.48°N, 70.72°W
Report Text: KSFM 290315Z AUTO 25004KT 10SM CLR M12/M15 A3014 RMK AO1
Loading
Personal Weather Stations






























Interactive Weather Map New forecast layout! Learn more

10-Day Weather Forecast

Advertisements
Track Severe Weather on mobile